sensor_id;sensor_type;location;lat;lon;timestamp;pressure;altitude;pressure_sealevel;temperature;humidity
47366;BME280;33105;47.964;7.982;2022-12-11T00:00:52;96074.22;;;-3.55;93.36
47366;BME280;33105;47.964;7.982;2022-12-11T00:03:53;96075.72;;;-3.46;92.85
47366;BME280;33105;47.964;7.982;2022-12-11T00:06:55;96068.59;;;-3.38;92.01
47366;BME280;33105;47.964;7.982;2022-12-11T00:09:56;96074.59;;;-3.36;92.26
47366;BME280;33105;47.964;7.982;2022-12-11T00:12:58;96072.03;;;-3.45;91.30
47366;BME280;33105;47.964;7.982;2022-12-11T00:15:59;96068.75;;;-3.47;91.44
47366;BME280;33105;47.964;7.982;2022-12-11T00:19:02;96062.91;;;-3.57;91.41
47366;BME280;33105;47.964;7.982;2022-12-11T00:22:04;96068.31;;;-3.71;92.46
47366;BME280;33105;47.964;7.982;2022-12-11T00:25:05;96063.19;;;-3.73;92.41
47366;BME280;33105;47.964;7.982;2022-12-11T00:28:07;96066.66;;;-3.72;92.37
47366;BME280;33105;47.964;7.982;2022-12-11T00:31:13;96068.16;;;-3.85;92.68
47366;BME280;33105;47.964;7.982;2022-12-11T00:34:15;96072.63;;;-3.70;92.92
47366;BME280;33105;47.964;7.982;2022-12-11T00:37:18;96081.25;;;-3.68;92.10
47366;BME280;33105;47.964;7.982;2022-12-11T00:40:20;96079.31;;;-3.60;92.83
47366;BME280;33105;47.964;7.982;2022-12-11T00:43:23;96082.81;;;-3.59;94.05
47366;BME280;33105;47.964;7.982;2022-12-11T00:46:25;96079.03;;;-3.65;93.31
47366;BME280;33105;47.964;7.982;2022-12-11T00:49:29;96086.09;;;-3.79;92.35
47366;BME280;33105;47.964;7.982;2022-12-11T00:52:35;96091.34;;;-3.85;92.61
47366;BME280;33105;47.964;7.982;2022-12-11T00:55:39;96093.84;;;-3.84;92.52
47366;BME280;33105;47.964;7.982;2022-12-11T00:58:41;96095.78;;;-3.92;92.85
47366;BME280;33105;47.964;7.982;2022-12-11T01:01:42;96093.31;;;-3.94;92.12
47366;BME280;33105;47.964;7.982;2022-12-11T01:04:45;96095.09;;;-4.16;91.57
47366;BME280;33105;47.964;7.982;2022-12-11T01:07:49;96101.44;;;-4.17;92.98
47366;BME280;33105;47.964;7.982;2022-12-11T01:11:03;96099.34;;;-4.06;93.57
47366;BME280;33105;47.964;7.982;2022-12-11T01:14:07;96100.28;;;-3.93;93.42
47366;BME280;33105;47.964;7.982;2022-12-11T01:17:08;96103.22;;;-3.88;92.49
47366;BME280;33105;47.964;7.982;2022-12-11T01:20:10;96099.47;;;-3.93;91.18
47366;BME280;33105;47.964;7.982;2022-12-11T01:23:12;96114.44;;;-4.28;92.32
47366;BME280;33105;47.964;7.982;2022-12-11T01:26:14;96119.75;;;-4.14;93.35
47366;BME280;33105;47.964;7.982;2022-12-11T01:29:15;96125.63;;;-4.03;92.27
47366;BME280;33105;47.964;7.982;2022-12-11T01:32:18;96125.47;;;-4.17;91.93
47366;BME280;33105;47.964;7.982;2022-12-11T01:35:20;96130.78;;;-4.17;92.06
47366;BME280;33105;47.964;7.982;2022-12-11T01:38:22;96130.25;;;-4.12;93.08
47366;BME280;33105;47.964;7.982;2022-12-11T01:41:24;96129.84;;;-3.94;92.25
47366;BME280;33105;47.964;7.982;2022-12-11T01:47:34;96126.47;;;-4.03;93.31
47366;BME280;33105;47.964;7.982;2022-12-11T01:50:40;96138.66;;;-3.79;93.21
47366;BME280;33105;47.964;7.982;2022-12-11T01:53:58;96143.53;;;-3.83;91.64
47366;BME280;33105;47.964;7.982;2022-12-11T01:57:05;96139.56;;;-3.87;92.41
47366;BME280;33105;47.964;7.982;2022-12-11T02:00:08;96134.44;;;-3.88;93.34
47366;BME280;33105;47.964;7.982;2022-12-11T02:03:14;96137.22;;;-3.96;92.08
47366;BME280;33105;47.964;7.982;2022-12-11T02:06:31;96146.03;;;-3.96;93.31
47366;BME280;33105;47.964;7.982;2022-12-11T02:09:35;96136.06;;;-3.87;92.69
47366;BME280;33105;47.964;7.982;2022-12-11T02:12:56;96144.91;;;-3.72;92.54
47366;BME280;33105;47.964;7.982;2022-12-11T02:16:23;96134.81;;;-3.70;92.17
47366;BME280;33105;47.964;7.982;2022-12-11T02:19:51;96139.19;;;-3.84;92.95
47366;BME280;33105;47.964;7.982;2022-12-11T02:29:36;96132.31;;;-3.57;93.14
47366;BME280;33105;47.964;7.982;2022-12-11T02:32:46;96133.53;;;-3.38;92.00
47366;BME280;33105;47.964;7.982;2022-12-11T02:35:53;96138.03;;;-3.38;92.10
47366;BME280;33105;47.964;7.982;2022-12-11T02:38:56;96134.53;;;-3.39;92.66
47366;BME280;33105;47.964;7.982;2022-12-11T02:42:02;96135.09;;;-3.65;91.78
47366;BME280;33105;47.964;7.982;2022-12-11T02:45:05;96144.13;;;-3.66;92.42
47366;BME280;33105;47.964;7.982;2022-12-11T02:48:10;96145.84;;;-3.58;92.02
47366;BME280;33105;47.964;7.982;2022-12-11T02:51:15;96149.88;;;-3.48;93.15
47366;BME280;33105;47.964;7.982;2022-12-11T02:54:24;96148.47;;;-3.44;92.97
47366;BME280;33105;47.964;7.982;2022-12-11T02:57:38;96142.47;;;-3.46;92.71
47366;BME280;33105;47.964;7.982;2022-12-11T03:00:43;96136.28;;;-3.31;92.29
47366;BME280;33105;47.964;7.982;2022-12-11T03:03:45;96131.31;;;-3.34;92.46
47366;BME280;33105;47.964;7.982;2022-12-11T03:06:48;96129.28;;;-3.32;92.37
47366;BME280;33105;47.964;7.982;2022-12-11T03:09:52;96133.34;;;-3.36;91.29
47366;BME280;33105;47.964;7.982;2022-12-11T03:12:56;96128.44;;;-3.33;91.22
47366;BME280;33105;47.964;7.982;2022-12-11T03:19:10;96127.63;;;-3.33;91.90
47366;BME280;33105;47.964;7.982;2022-12-11T03:25:53;96129.91;;;-3.73;92.64
47366;BME280;33105;47.964;7.982;2022-12-11T03:29:02;96123.91;;;-3.75;92.86
47366;BME280;33105;47.964;7.982;2022-12-11T03:32:09;96128.81;;;-3.79;91.79
47366;BME280;33105;47.964;7.982;2022-12-11T03:35:29;96139.84;;;-3.82;92.30
47366;BME280;33105;47.964;7.982;2022-12-11T03:38:54;96142.06;;;-3.85;91.66
47366;BME280;33105;47.964;7.982;2022-12-11T03:41:57;96134.13;;;-3.79;92.29
47366;BME280;33105;47.964;7.982;2022-12-11T03:45:01;96137.19;;;-3.82;92.40
47366;BME280;33105;47.964;7.982;2022-12-11T03:48:03;96131.81;;;-4.03;92.18
47366;BME280;33105;47.964;7.982;2022-12-11T03:51:07;96136.69;;;-4.06;92.35
47366;BME280;33105;47.964;7.982;2022-12-11T03:54:09;96130.09;;;-3.89;91.45
47366;BME280;33105;47.964;7.982;2022-12-11T03:57:15;96132.44;;;-4.01;91.53
47366;BME280;33105;47.964;7.982;2022-12-11T04:00:18;96132.97;;;-3.91;91.51
47366;BME280;33105;47.964;7.982;2022-12-11T04:03:20;96131.88;;;-3.96;91.75
47366;BME280;33105;47.964;7.982;2022-12-11T04:06:22;96132.44;;;-4.16;91.43
47366;BME280;33105;47.964;7.982;2022-12-11T04:09:23;96137.22;;;-3.96;92.27
47366;BME280;33105;47.964;7.982;2022-12-11T04:12:25;96146.09;;;-3.89;92.17
47366;BME280;33105;47.964;7.982;2022-12-11T04:15:27;96147.44;;;-4.00;91.60
47366;BME280;33105;47.964;7.982;2022-12-11T04:18:30;96150.00;;;-4.06;90.48
47366;BME280;33105;47.964;7.982;2022-12-11T04:21:50;96145.53;;;-4.21;91.36
47366;BME280;33105;47.964;7.982;2022-12-11T04:25:10;96138.53;;;-4.22;91.46
47366;BME280;33105;47.964;7.982;2022-12-11T04:28:11;96142.38;;;-4.09;91.85
47366;BME280;33105;47.964;7.982;2022-12-11T04:31:15;96138.28;;;-3.91;91.83
47366;BME280;33105;47.964;7.982;2022-12-11T04:34:18;96133.13;;;-3.92;90.72
47366;BME280;33105;47.964;7.982;2022-12-11T04:37:19;96131.25;;;-3.98;90.59
47366;BME280;33105;47.964;7.982;2022-12-11T04:40:21;96141.75;;;-4.26;90.02
47366;BME280;33105;47.964;7.982;2022-12-11T04:43:22;96136.88;;;-4.23;91.62
47366;BME280;33105;47.964;7.982;2022-12-11T04:46:25;96131.72;;;-4.39;91.27
47366;BME280;33105;47.964;7.982;2022-12-11T04:49:27;96130.44;;;-4.43;91.37
47366;BME280;33105;47.964;7.982;2022-12-11T04:52:28;96132.41;;;-4.52;91.83
47366;BME280;33105;47.964;7.982;2022-12-11T04:55:30;96127.53;;;-4.48;91.05
47366;BME280;33105;47.964;7.982;2022-12-11T04:58:32;96129.06;;;-4.24;91.68
47366;BME280;33105;47.964;7.982;2022-12-11T05:01:36;96129.31;;;-4.19;91.29
47366;BME280;33105;47.964;7.982;2022-12-11T05:04:39;96124.28;;;-4.29;91.32
47366;BME280;33105;47.964;7.982;2022-12-11T05:07:40;96129.53;;;-4.35;90.29
47366;BME280;33105;47.964;7.982;2022-12-11T05:10:42;96126.06;;;-4.51;90.74
47366;BME280;33105;47.964;7.982;2022-12-11T05:13:45;96121.44;;;-4.42;91.63
47366;BME280;33105;47.964;7.982;2022-12-11T05:16:46;96124.09;;;-4.42;90.51
47366;BME280;33105;47.964;7.982;2022-12-11T05:19:51;96121.34;;;-4.34;90.89
47366;BME280;33105;47.964;7.982;2022-12-11T05:22:52;96129.91;;;-4.24;91.39
47366;BME280;33105;47.964;7.982;2022-12-11T05:25:58;96118.47;;;-4.18;90.50
47366;BME280;33105;47.964;7.982;2022-12-11T05:28:59;96115.47;;;-4.29;90.26
47366;BME280;33105;47.964;7.982;2022-12-11T05:32:01;96124.00;;;-4.34;90.79
47366;BME280;33105;47.964;7.982;2022-12-11T05:35:03;96127.69;;;-4.35;90.97
47366;BME280;33105;47.964;7.982;2022-12-11T05:38:05;96121.53;;;-4.35;91.50
47366;BME280;33105;47.964;7.982;2022-12-11T05:41:06;96112.25;;;-4.39;90.45
47366;BME280;33105;47.964;7.982;2022-12-11T05:44:11;96121.63;;;-4.58;90.49
47366;BME280;33105;47.964;7.982;2022-12-11T05:47:13;96116.31;;;-4.58;90.80
47366;BME280;33105;47.964;7.982;2022-12-11T05:50:15;96114.34;;;-4.64;90.81
47366;BME280;33105;47.964;7.982;2022-12-11T05:53:17;96112.91;;;-4.52;91.30
47366;BME280;33105;47.964;7.982;2022-12-11T05:56:21;96115.38;;;-4.65;90.96
47366;BME280;33105;47.964;7.982;2022-12-11T05:59:22;96110.22;;;-4.96;90.64
47366;BME280;33105;47.964;7.982;2022-12-11T06:02:23;96109.28;;;-4.89;91.15
47366;BME280;33105;47.964;7.982;2022-12-11T06:05:26;96109.56;;;-4.84;90.41
47366;BME280;33105;47.964;7.982;2022-12-11T06:08:28;96105.44;;;-5.01;90.22
47366;BME280;33105;47.964;7.982;2022-12-11T06:11:31;96115.25;;;-5.01;90.12
47366;BME280;33105;47.964;7.982;2022-12-11T06:14:33;96111.22;;;-4.97;90.13
47366;BME280;33105;47.964;7.982;2022-12-11T06:17:34;96112.66;;;-4.95;90.55
47366;BME280;33105;47.964;7.982;2022-12-11T06:20:36;96118.63;;;-5.22;91.13
47366;BME280;33105;47.964;7.982;2022-12-11T06:23:39;96114.88;;;-5.36;90.58
47366;BME280;33105;47.964;7.982;2022-12-11T06:26:42;96109.91;;;-5.39;91.40
47366;BME280;33105;47.964;7.982;2022-12-11T06:29:45;96105.97;;;-5.43;90.72
47366;BME280;33105;47.964;7.982;2022-12-11T06:32:46;96105.78;;;-5.41;90.64
47366;BME280;33105;47.964;7.982;2022-12-11T06:35:47;96101.09;;;-5.39;91.08
47366;BME280;33105;47.964;7.982;2022-12-11T06:38:50;96097.59;;;-5.55;89.93
47366;BME280;33105;47.964;7.982;2022-12-11T06:41:52;96099.91;;;-5.74;89.51
47366;BME280;33105;47.964;7.982;2022-12-11T06:44:54;96096.97;;;-5.65;90.39
47366;BME280;33105;47.964;7.982;2022-12-11T06:47:57;96097.44;;;-5.38;91.27
47366;BME280;33105;47.964;7.982;2022-12-11T06:50:58;96098.69;;;-5.26;89.05
47366;BME280;33105;47.964;7.982;2022-12-11T06:54:00;96097.72;;;-5.48;88.73
47366;BME280;33105;47.964;7.982;2022-12-11T06:57:03;96093.47;;;-5.42;90.40
47366;BME280;33105;47.964;7.982;2022-12-11T07:00:06;96095.13;;;-5.41;89.33
47366;BME280;33105;47.964;7.982;2022-12-11T07:03:08;96096.78;;;-5.40;88.36
47366;BME280;33105;47.964;7.982;2022-12-11T07:06:10;96094.03;;;-5.47;88.70
47366;BME280;33105;47.964;7.982;2022-12-11T07:09:11;96094.75;;;-5.76;88.49
47366;BME280;33105;47.964;7.982;2022-12-11T07:12:15;96103.09;;;-5.79;91.07
47366;BME280;33105;47.964;7.982;2022-12-11T07:15:17;96106.69;;;-5.72;90.48
47366;BME280;33105;47.964;7.982;2022-12-11T07:18:19;96108.63;;;-5.66;89.43
47366;BME280;33105;47.964;7.982;2022-12-11T07:21:21;96116.56;;;-5.58;89.60
47366;BME280;33105;47.964;7.982;2022-12-11T07:24:24;96117.06;;;-5.39;89.59
47366;BME280;33105;47.964;7.982;2022-12-11T07:27:25;96122.47;;;-5.47;87.27
47366;BME280;33105;47.964;7.982;2022-12-11T07:30:27;96121.00;;;-5.50;89.23
47366;BME280;33105;47.964;7.982;2022-12-11T07:33:29;96118.00;;;-5.70;86.75
47366;BME280;33105;47.964;7.982;2022-12-11T07:36:31;96127.34;;;-5.74;87.44
47366;BME280;33105;47.964;7.982;2022-12-11T07:39:33;96124.19;;;-5.77;87.56
47366;BME280;33105;47.964;7.982;2022-12-11T07:42:35;96140.56;;;-5.89;87.85
47366;BME280;33105;47.964;7.982;2022-12-11T07:45:37;96146.81;;;-5.82;88.20
47366;BME280;33105;47.964;7.982;2022-12-11T07:48:39;96138.69;;;-5.88;88.38
47366;BME280;33105;47.964;7.982;2022-12-11T07:51:41;96134.69;;;-5.84;88.45
47366;BME280;33105;47.964;7.982;2022-12-11T07:54:43;96147.50;;;-6.10;87.12
47366;BME280;33105;47.964;7.982;2022-12-11T07:57:45;96138.50;;;-6.01;88.39
47366;BME280;33105;47.964;7.982;2022-12-11T08:00:47;96141.63;;;-5.98;88.20
47366;BME280;33105;47.964;7.982;2022-12-11T08:03:49;96153.16;;;-6.13;88.09
47366;BME280;33105;47.964;7.982;2022-12-11T08:06:51;96139.25;;;-5.93;87.92
47366;BME280;33105;47.964;7.982;2022-12-11T08:09:52;96150.56;;;-5.91;86.43
47366;BME280;33105;47.964;7.982;2022-12-11T08:12:55;96137.34;;;-5.84;87.37
47366;BME280;33105;47.964;7.982;2022-12-11T08:15:57;96142.81;;;-6.00;87.30
47366;BME280;33105;47.964;7.982;2022-12-11T08:18:58;96136.16;;;-5.96;87.57
47366;BME280;33105;47.964;7.982;2022-12-11T08:22:00;96143.75;;;-5.93;86.69
47366;BME280;33105;47.964;7.982;2022-12-11T08:25:02;96138.09;;;-5.90;86.91
47366;BME280;33105;47.964;7.982;2022-12-11T08:28:04;96140.84;;;-5.84;85.83
47366;BME280;33105;47.964;7.982;2022-12-11T08:31:08;96143.19;;;-6.11;86.23
47366;BME280;33105;47.964;7.982;2022-12-11T08:34:10;96135.66;;;-5.77;86.58
47366;BME280;33105;47.964;7.982;2022-12-11T08:37:14;96131.66;;;-5.73;85.78
47366;BME280;33105;47.964;7.982;2022-12-11T08:40:16;96138.38;;;-5.62;86.53
47366;BME280;33105;47.964;7.982;2022-12-11T08:43:18;96135.22;;;-5.66;86.87
47366;BME280;33105;47.964;7.982;2022-12-11T08:46:21;96142.97;;;-6.02;85.20
47366;BME280;33105;47.964;7.982;2022-12-11T08:49:24;96147.97;;;-5.99;85.99
47366;BME280;33105;47.964;7.982;2022-12-11T08:52:26;96141.13;;;-5.70;85.68
47366;BME280;33105;47.964;7.982;2022-12-11T08:55:27;96150.16;;;-6.10;88.13
47366;BME280;33105;47.964;7.982;2022-12-11T08:58:30;96140.13;;;-6.70;88.40
47366;BME280;33105;47.964;7.982;2022-12-11T09:01:31;96142.53;;;-6.44;88.72
47366;BME280;33105;47.964;7.982;2022-12-11T09:04:33;96138.50;;;-6.01;88.94
47366;BME280;33105;47.964;7.982;2022-12-11T09:07:35;96135.84;;;-5.78;88.55
47366;BME280;33105;47.964;7.982;2022-12-11T09:10:37;96122.31;;;-5.46;86.56
47366;BME280;33105;47.964;7.982;2022-12-11T09:13:40;96113.84;;;-5.50;84.76
47366;BME280;33105;47.964;7.982;2022-12-11T09:16:42;96116.59;;;-5.43;85.50
47366;BME280;33105;47.964;7.982;2022-12-11T09:19:44;96117.66;;;-5.29;85.49
47366;BME280;33105;47.964;7.982;2022-12-11T09:22:45;96116.97;;;-5.23;84.89
47366;BME280;33105;47.964;7.982;2022-12-11T09:25:47;96109.88;;;-5.16;84.21
47366;BME280;33105;47.964;7.982;2022-12-11T09:28:49;96107.56;;;-5.19;84.25
47366;BME280;33105;47.964;7.982;2022-12-11T09:31:53;96109.34;;;-5.11;84.85
47366;BME280;33105;47.964;7.982;2022-12-11T09:34:55;96108.63;;;-5.05;84.81
47366;BME280;33105;47.964;7.982;2022-12-11T09:37:57;96099.75;;;-4.98;83.96
47366;BME280;33105;47.964;7.982;2022-12-11T09:40:58;96098.09;;;-4.84;84.65
47366;BME280;33105;47.964;7.982;2022-12-11T09:47:24;96095.25;;;-4.68;84.63
47366;BME280;33105;47.964;7.982;2022-12-11T09:50:32;96088.00;;;-4.59;83.79
47366;BME280;33105;47.964;7.982;2022-12-11T09:53:35;96088.63;;;-4.57;84.10
47366;BME280;33105;47.964;7.982;2022-12-11T10:09:55;96056.66;;;-4.06;83.58
47366;BME280;33105;47.964;7.982;2022-12-11T10:16:58;96043.72;;;-3.88;82.41
47366;BME280;33105;47.964;7.982;2022-12-11T10:23:20;96025.38;;;-3.77;81.56
47366;BME280;33105;47.964;7.982;2022-12-11T10:26:23;96023.81;;;-3.64;82.11
47366;BME280;33105;47.964;7.982;2022-12-11T10:29:27;96019.50;;;-3.65;81.96
47366;BME280;33105;47.964;7.982;2022-12-11T10:32:40;96022.97;;;-3.44;82.27
47366;BME280;33105;47.964;7.982;2022-12-11T10:35:49;96009.22;;;-3.40;81.86
47366;BME280;33105;47.964;7.982;2022-12-11T10:38:51;96008.91;;;-3.31;82.13
47366;BME280;33105;47.964;7.982;2022-12-11T10:41:54;95996.63;;;-3.25;82.09
47366;BME280;33105;47.964;7.982;2022-12-11T10:45:02;95999.25;;;-3.32;81.47
47366;BME280;33105;47.964;7.982;2022-12-11T10:48:09;96003.19;;;-3.28;83.41
47366;BME280;33105;47.964;7.982;2022-12-11T10:51:11;95997.41;;;-3.31;84.56
47366;BME280;33105;47.964;7.982;2022-12-11T10:57:35;95990.53;;;-3.13;81.56
47366;BME280;33105;47.964;7.982;2022-12-11T11:00:40;95984.31;;;-2.85;80.13
47366;BME280;33105;47.964;7.982;2022-12-11T11:04:02;95973.81;;;-2.87;81.21
47366;BME280;33105;47.964;7.982;2022-12-11T11:07:10;95969.75;;;-2.83;80.56
47366;BME280;33105;47.964;7.982;2022-12-11T11:10:16;95975.81;;;-3.02;80.45
47366;BME280;33105;47.964;7.982;2022-12-11T11:13:23;95972.34;;;-3.30;83.22
47366;BME280;33105;47.964;7.982;2022-12-11T11:16:25;95969.34;;;-2.80;83.44
47366;BME280;33105;47.964;7.982;2022-12-11T11:19:31;95962.84;;;-2.64;82.05
47366;BME280;33105;47.964;7.982;2022-12-11T11:22:38;95951.38;;;-2.51;81.90
47366;BME280;33105;47.964;7.982;2022-12-11T11:25:54;95952.00;;;-2.43;83.49
47366;BME280;33105;47.964;7.982;2022-12-11T11:28:57;95944.84;;;-2.29;81.30
47366;BME280;33105;47.964;7.982;2022-12-11T11:32:13;95937.63;;;-2.35;80.05
47366;BME280;33105;47.964;7.982;2022-12-11T11:35:23;95938.50;;;-2.28;79.93
47366;BME280;33105;47.964;7.982;2022-12-11T11:38:36;95942.38;;;-2.30;81.18
47366;BME280;33105;47.964;7.982;2022-12-11T11:42:16;95937.47;;;-2.27;81.70
47366;BME280;33105;47.964;7.982;2022-12-11T11:45:21;95942.31;;;-2.57;79.68
47366;BME280;33105;47.964;7.982;2022-12-11T11:48:52;95941.16;;;-2.28;81.16
47366;BME280;33105;47.964;7.982;2022-12-11T11:52:02;95933.53;;;-2.31;81.84
47366;BME280;33105;47.964;7.982;2022-12-11T11:57:54;95940.69;;;-2.51;81.80
47366;BME280;33105;47.964;7.982;2022-12-11T12:00:57;95933.50;;;-2.37;81.82
47366;BME280;33105;47.964;7.982;2022-12-11T12:04:00;95930.06;;;-2.25;81.68
47366;BME280;33105;47.964;7.982;2022-12-11T12:10:33;95920.63;;;-2.08;80.40
47366;BME280;33105;47.964;7.982;2022-12-11T12:27:18;95920.22;;;-2.04;79.76
47366;BME280;33105;47.964;7.982;2022-12-11T12:30:21;95923.09;;;-2.06;80.94
47366;BME280;33105;47.964;7.982;2022-12-11T12:33:29;95918.97;;;-1.89;79.15
47366;BME280;33105;47.964;7.982;2022-12-11T12:43:47;95923.09;;;-1.86;80.70
47366;BME280;33105;47.964;7.982;2022-12-11T12:47:13;95930.13;;;-1.79;81.55
47366;BME280;33105;47.964;7.982;2022-12-11T12:50:18;95925.75;;;-1.93;82.36
47366;BME280;33105;47.964;7.982;2022-12-11T12:53:27;95923.72;;;-1.78;81.61
47366;BME280;33105;47.964;7.982;2022-12-11T12:56:33;95930.94;;;-1.78;82.37
47366;BME280;33105;47.964;7.982;2022-12-11T12:59:37;95929.47;;;-1.87;82.95
47366;BME280;33105;47.964;7.982;2022-12-11T13:02:49;95936.28;;;-1.78;82.81
47366;BME280;33105;47.964;7.982;2022-12-11T13:09:23;95950.97;;;-2.48;85.17
47366;BME280;33105;47.964;7.982;2022-12-11T13:12:42;95944.84;;;-2.22;84.16
47366;BME280;33105;47.964;7.982;2022-12-11T13:15:46;95955.88;;;-2.58;85.71
47366;BME280;33105;47.964;7.982;2022-12-11T13:18:49;95939.88;;;-2.38;85.00
47366;BME280;33105;47.964;7.982;2022-12-11T13:22:03;95950.81;;;-2.88;84.98
47366;BME280;33105;47.964;7.982;2022-12-11T13:25:32;95948.00;;;-2.66;85.37
47366;BME280;33105;47.964;7.982;2022-12-11T13:28:46;95946.56;;;-2.69;86.53
47366;BME280;33105;47.964;7.982;2022-12-11T13:31:59;95945.09;;;-2.71;85.41
47366;BME280;33105;47.964;7.982;2022-12-11T13:35:04;95954.50;;;-2.89;85.74
47366;BME280;33105;47.964;7.982;2022-12-11T13:38:17;95954.03;;;-2.99;85.88
47366;BME280;33105;47.964;7.982;2022-12-11T13:41:19;95962.59;;;-3.10;86.46
47366;BME280;33105;47.964;7.982;2022-12-11T13:44:25;95960.63;;;-2.95;87.61
47366;BME280;33105;47.964;7.982;2022-12-11T13:47:27;95961.53;;;-2.81;86.06
47366;BME280;33105;47.964;7.982;2022-12-11T13:50:33;95965.72;;;-3.06;87.14
47366;BME280;33105;47.964;7.982;2022-12-11T13:53:35;95970.91;;;-2.98;86.38
47366;BME280;33105;47.964;7.982;2022-12-11T13:56:36;95978.09;;;-2.92;86.44
47366;BME280;33105;47.964;7.982;2022-12-11T13:59:42;95982.53;;;-3.40;87.17
47366;BME280;33105;47.964;7.982;2022-12-11T14:02:44;95980.53;;;-3.32;89.30
47366;BME280;33105;47.964;7.982;2022-12-11T14:05:45;95984.88;;;-3.31;88.14
47366;BME280;33105;47.964;7.982;2022-12-11T14:08:52;95981.06;;;-3.92;89.80
47366;BME280;33105;47.964;7.982;2022-12-11T14:11:54;95986.16;;;-3.97;89.47
47366;BME280;33105;47.964;7.982;2022-12-11T14:15:00;95990.28;;;-3.73;90.52
47366;BME280;33105;47.964;7.982;2022-12-11T14:18:03;95996.38;;;-4.01;90.85
47366;BME280;33105;47.964;7.982;2022-12-11T14:21:05;95994.59;;;-3.72;89.63
47366;BME280;33105;47.964;7.982;2022-12-11T14:24:11;96005.47;;;-3.46;88.75
47366;BME280;33105;47.964;7.982;2022-12-11T14:27:15;96004.50;;;-3.66;88.44
47366;BME280;33105;47.964;7.982;2022-12-11T14:30:36;95997.06;;;-3.50;88.88
47366;BME280;33105;47.964;7.982;2022-12-11T14:33:48;96002.34;;;-3.28;89.18
47366;BME280;33105;47.964;7.982;2022-12-11T14:36:53;95999.38;;;-3.12;87.09
47366;BME280;33105;47.964;7.982;2022-12-11T14:43:00;96014.47;;;-2.98;87.10
47366;BME280;33105;47.964;7.982;2022-12-11T14:46:28;96011.63;;;-3.24;87.33
47366;BME280;33105;47.964;7.982;2022-12-11T14:53:16;96014.91;;;-3.93;89.50
47366;BME280;33105;47.964;7.982;2022-12-11T14:56:22;96019.19;;;-3.56;89.61
47366;BME280;33105;47.964;7.982;2022-12-11T14:59:26;96014.84;;;-3.57;89.94
47366;BME280;33105;47.964;7.982;2022-12-11T15:02:31;96016.88;;;-3.59;89.54
47366;BME280;33105;47.964;7.982;2022-12-11T15:05:33;96013.19;;;-3.58;89.42
47366;BME280;33105;47.964;7.982;2022-12-11T15:08:35;96012.06;;;-3.49;88.51
47366;BME280;33105;47.964;7.982;2022-12-11T15:11:36;96006.72;;;-3.91;88.67
47366;BME280;33105;47.964;7.982;2022-12-11T15:14:59;96002.84;;;-4.10;89.70
47366;BME280;33105;47.964;7.982;2022-12-11T15:18:07;96000.75;;;-4.15;89.42
47366;BME280;33105;47.964;7.982;2022-12-11T15:21:14;96001.72;;;-4.37;89.73
47366;BME280;33105;47.964;7.982;2022-12-11T15:24:35;96001.31;;;-4.55;90.50
47366;BME280;33105;47.964;7.982;2022-12-11T15:27:39;95994.91;;;-4.61;90.69
47366;BME280;33105;47.964;7.982;2022-12-11T15:30:40;95983.94;;;-4.51;90.41
47366;BME280;33105;47.964;7.982;2022-12-11T15:33:45;95989.22;;;-4.72;89.43
47366;BME280;33105;47.964;7.982;2022-12-11T15:36:49;95986.19;;;-4.84;90.26
47366;BME280;33105;47.964;7.982;2022-12-11T15:39:52;95995.75;;;-4.90;90.63
47366;BME280;33105;47.964;7.982;2022-12-11T15:42:53;95997.03;;;-5.15;90.23
47366;BME280;33105;47.964;7.982;2022-12-11T15:45:55;95998.06;;;-5.45;91.08
47366;BME280;33105;47.964;7.982;2022-12-11T15:48:57;95999.41;;;-5.50;91.21
47366;BME280;33105;47.964;7.982;2022-12-11T15:51:58;96003.22;;;-5.67;91.55
47366;BME280;33105;47.964;7.982;2022-12-11T15:54:59;95998.28;;;-5.70;91.71
47366;BME280;33105;47.964;7.982;2022-12-11T15:58:03;96000.94;;;-5.70;92.15
47366;BME280;33105;47.964;7.982;2022-12-11T16:01:05;95998.19;;;-5.62;91.41
47366;BME280;33105;47.964;7.982;2022-12-11T16:04:07;96004.34;;;-5.61;91.22
47366;BME280;33105;47.964;7.982;2022-12-11T16:07:16;96004.63;;;-5.94;91.59
47366;BME280;33105;47.964;7.982;2022-12-11T16:10:19;96005.03;;;-5.97;92.22
47366;BME280;33105;47.964;7.982;2022-12-11T16:13:21;95998.63;;;-5.73;92.42
47366;BME280;33105;47.964;7.982;2022-12-11T16:16:22;96000.38;;;-5.65;91.44
47366;BME280;33105;47.964;7.982;2022-12-11T16:19:24;96000.25;;;-5.49;90.97
47366;BME280;33105;47.964;7.982;2022-12-11T16:22:26;96002.72;;;-5.47;91.27
47366;BME280;33105;47.964;7.982;2022-12-11T16:25:27;95999.72;;;-5.30;91.08
47366;BME280;33105;47.964;7.982;2022-12-11T16:28:29;95999.41;;;-5.50;89.24
47366;BME280;33105;47.964;7.982;2022-12-11T16:31:31;96008.03;;;-5.47;89.49
47366;BME280;33105;47.964;7.982;2022-12-11T16:34:32;96005.81;;;-5.59;89.74
47366;BME280;33105;47.964;7.982;2022-12-11T16:37:33;96007.81;;;-5.61;89.42
47366;BME280;33105;47.964;7.982;2022-12-11T16:40:35;96002.34;;;-5.82;88.36
47366;BME280;33105;47.964;7.982;2022-12-11T16:43:37;96000.69;;;-5.98;89.23
47366;BME280;33105;47.964;7.982;2022-12-11T16:46:38;96001.94;;;-6.08;89.60
47366;BME280;33105;47.964;7.982;2022-12-11T16:49:40;95998.63;;;-6.10;90.52
47366;BME280;33105;47.964;7.982;2022-12-11T16:52:43;95984.31;;;-6.09;90.21
47366;BME280;33105;47.964;7.982;2022-12-11T16:55:45;95987.81;;;-6.09;90.96
47366;BME280;33105;47.964;7.982;2022-12-11T16:58:46;95983.69;;;-6.11;91.16
47366;BME280;33105;47.964;7.982;2022-12-11T17:01:48;95973.53;;;-5.93;90.76
47366;BME280;33105;47.964;7.982;2022-12-11T17:04:50;95976.22;;;-5.93;90.50
47366;BME280;33105;47.964;7.982;2022-12-11T17:07:51;95971.56;;;-5.76;90.27
47366;BME280;33105;47.964;7.982;2022-12-11T17:10:53;95975.28;;;-5.86;90.00
47366;BME280;33105;47.964;7.982;2022-12-11T17:13:58;95974.28;;;-5.85;89.04
47366;BME280;33105;47.964;7.982;2022-12-11T17:16:59;95969.31;;;-5.88;89.02
47366;BME280;33105;47.964;7.982;2022-12-11T17:20:01;95978.97;;;-6.01;88.96
47366;BME280;33105;47.964;7.982;2022-12-11T17:23:02;95971.38;;;-6.12;89.05
47366;BME280;33105;47.964;7.982;2022-12-11T17:26:05;95968.06;;;-6.14;89.91
47366;BME280;33105;47.964;7.982;2022-12-11T17:29:10;95973.03;;;-6.11;90.20
47366;BME280;33105;47.964;7.982;2022-12-11T17:32:12;95969.25;;;-5.94;90.03
47366;BME280;33105;47.964;7.982;2022-12-11T17:35:14;95967.38;;;-6.08;89.78
47366;BME280;33105;47.964;7.982;2022-12-11T17:38:15;95964.25;;;-6.12;89.04